Home > Products > Valid Products > MTR

000
SAUS46 KMFR 052357
MTRSXT
METAR KSXT 052356Z AUTO 00000KT 10SM CLR 12/01 A3033 RMK AO2 SLP259
6//// T01170006 56006





000
SAUS46 KMFR 052257
MTRSXT
METAR KSXT 052256Z AUTO 00000KT 10SM CLR 13/01 A3033 RMK AO2 SLP257
T01280011





000
SAUS46 KMFR 052257
MTRSXT
METAR KSXT 052256Z AUTO 00000KT 10SM CLR 13/01 A3033 RMK AO2 SLP257
T01280011





000
SAUS46 KMFR 052157
MTRSXT
METAR KSXT 052156Z AUTO VRB04KT 10SM CLR 13/M01 A3033 RMK AO2 SLP256
T01281011 $





000
SAUS46 KMFR 052157
MTRSXT
METAR KSXT 052156Z AUTO VRB04KT 10SM CLR 13/M01 A3033 RMK AO2 SLP256
T01281011 $





000
SAUS46 KMFR 052057
MTRSXT
METAR KSXT 052056Z AUTO A3034 RMK AO2 SLPNO 6//// 51004 PWINO FZRANO
PNO $





000
SAUS46 KMFR 051957
MTRSXT
METAR KSXT 051956Z AUTO A3034 RMK AO2 SLPNO PWINO FZRANO PNO $





000
SAUS46 KMFR 051957
MTRSXT
METAR KSXT 051956Z AUTO A3034 RMK AO2 SLPNO PWINO FZRANO PNO $





000
SAUS46 KMFR 051900
MTRMHS
METAR KMHS 051856Z AUTO 21003KT 10SM CLR 14/M05 A3035 RMK AO2 SLP299
T01391050





000
SAUS46 KMFR 051900
MTRMHS
METAR KMHS 051856Z AUTO 21003KT 10SM CLR 14/M05 A3035 RMK AO2 SLP299
T01391050





000
SAUS46 KMFR 051857
MTRSXT
METAR KSXT 051856Z AUTO A3034 RMK AO2 SLPNO PWINO FZRANO PNO $





000
SAUS46 KMFR 051757
MTRSXT
METAR KSXT 051756Z AUTO 14006KT 10SM CLR 11/M01 A3033 RMK AO2 SLP261
T01061011 10106 20056 51015





000
SAUS46 KMFR 051657
MTRSXT
METAR KSXT 051656Z AUTO 15005KT 10SM CLR 09/M02 A3032 RMK AO2 SLP258
T00891017





000
SAUS46 KMFR 051600
MTRMHS
METAR KMHS 051556Z AUTO 00000KT 9SM CLR 01/M06 A3034 RMK AO2 SLP307
T00061056





000
SAUS46 KMFR 051600
MTRMHS
METAR KMHS 051556Z AUTO 00000KT 9SM CLR 01/M06 A3034 RMK AO2 SLP307
T00061056





000
SAUS46 KMFR 051557
MTRSXT
METAR KSXT 051556Z AUTO 13007KT 10SM CLR 07/M03 A3030 RMK AO2 SLP255
T00671028





000
SAUS46 KMFR 051557
MTRSXT
METAR KSXT 051556Z AUTO 13007KT 10SM CLR 07/M03 A3030 RMK AO2 SLP255
T00671028





000
SAUS46 KMFR 051457
MTRSXT
METAR KSXT 051456Z AUTO 14007KT 10SM CLR 06/M03 A3028 RMK AO2 SLP252
T00611028 51012





000
SAUS46 KMFR 051457
MTRSXT
METAR KSXT 051456Z AUTO 14007KT 10SM CLR 06/M03 A3028 RMK AO2 SLP252
T00611028 51012





000
SAUS46 KMFR 051400
MTRMHS
METAR KMHS 051356Z AUTO 00000KT 10SM CLR M03/M08 A3031 RMK AO2
SLP293 T10331078





000
SAUS46 KMFR 051357
MTRSXT
METAR KSXT 051356Z AUTO 15005KT 10SM CLR 06/M02 A3027 RMK AO2 SLP249
T00611022





000
SAUS46 KMFR 051300
MTRMHS
METAR KMHS 051256Z AUTO 00000KT 10SM CLR M03/M07 A3029 RMK AO2
SLP282 T10331072





000
SAUS46 KMFR 051257
MTRSXT
METAR KSXT 051256Z AUTO 13004KT 10SM CLR 07/M02 A3026 RMK AO2 SLP239
T00671022





000
SAUS46 KMFR 051200
MTRMHS
METAR KMHS 051156Z AUTO 00000KT 10SM CLR M03/M07 A3027 RMK AO2
SLP273 T10281072 10006 21028 50001





000
SAUS46 KMFR 051157
MTRSXT
METAR KSXT 051156Z AUTO 14004KT 10SM CLR 07/M02 A3024 RMK AO2 SLP234
T00671022 10083 20061 51003





000
SAUS46 KMFR 051157
MTRSXT
METAR KSXT 051156Z AUTO 14004KT 10SM CLR 07/M02 A3024 RMK AO2 SLP234
T00671022 10083 20061 51003





000
SAUS46 KMFR 051057
MTRSXT
METAR KSXT 051056Z AUTO 16005KT 10SM CLR 07/M02 A3024 RMK AO2 SLP231
T00671022





000
SAUS46 KMFR 051057
MTRSXT
METAR KSXT 051056Z AUTO 16005KT 10SM CLR 07/M02 A3024 RMK AO2 SLP231
T00671022





000
SAUS46 KMFR 050957
MTRSXT
METAR KSXT 050956Z AUTO 14005KT 10SM CLR 07/M02 A3024 RMK AO2 SLP231
T00671022





000
SAUS46 KMFR 050857
MTRSXT
METAR KSXT 050856Z AUTO 15006KT 10SM CLR 07/M02 A3023 RMK AO2 SLP228
T00671022 51003





000
SAUS46 KMFR 050800
MTRMHS
METAR KMHS 050756Z AUTO 00000KT 8SM CLR M01/M06 A3027 RMK AO2 SLP271
T10061061 401671056





000
SAUS46 KMFR 050800
MTRMHS
METAR KMHS 050756Z AUTO 00000KT 8SM CLR M01/M06 A3027 RMK AO2 SLP271
T10061061 401671056





000
SAUS46 KMFR 050757
MTRSXT
METAR KSXT 050756Z AUTO 14007KT 10SM CLR 07/M03 A3023 RMK AO2 SLP230
T00721033 401110017





000
SAUS46 KMFR 050657
MTRSXT
METAR KSXT 050656Z AUTO 14007KT 10SM CLR 08/M03 A3023 RMK AO2 SLP226
T00831033





000
SAUS46 KMFR 050657
MTRSXT
METAR KSXT 050656Z AUTO 14007KT 10SM CLR 08/M03 A3023 RMK AO2 SLP226
T00831033





000
SAUS46 KMFR 050557
MTRSXT
METAR KSXT 050556Z AUTO 13006KT 10SM CLR 08/M03 A3022 RMK AO2 SLP229
T00831028 10100 20078 53009





000
SAUS46 KMFR 050557
MTRSXT
METAR KSXT 050556Z AUTO 13006KT 10SM CLR 08/M03 A3022 RMK AO2 SLP229
T00831028 10100 20078 53009





000
SAUS46 KMFR 050500
MTRMHS
METAR KMHS 050456Z AUTO 05003KT 9SM CLR 02/M04 A3023 RMK AO2 SLP265
T00221044





000
SAUS46 KMFR 050457
MTRSXT
METAR KSXT 050456Z AUTO 00000KT 10SM CLR 09/M07 A3021 RMK AO2 SLP225
T00891067





000
SAUS46 KMFR 050457
MTRSXT
METAR KSXT 050456Z AUTO 00000KT 10SM CLR 09/M07 A3021 RMK AO2 SLP225
T00891067





000
SAUS46 KMFR 050357
MTRSXT
METAR KSXT 050356Z AUTO 00000KT 10SM CLR 09/M06 A3020 RMK AO2 SLP224
T00891056





000
SAUS46 KMFR 050357
MTRSXT
METAR KSXT 050356Z AUTO 00000KT 10SM CLR 09/M06 A3020 RMK AO2 SLP224
T00891056





000
SAUS46 KMFR 050257
MTRSXT
METAR KSXT 050256Z AUTO 35005KT 10SM CLR 08/M04 A3019 RMK AO2 SLP228
T00831044 53006





000
SAUS46 KMFR 050257
MTRSXT
METAR KSXT 050256Z AUTO 35005KT 10SM CLR 08/M04 A3019 RMK AO2 SLP228
T00831044 53006





000
SAUS46 KMFR 050157
MTRSXT
METAR KSXT 050156Z AUTO 35005KT 10SM CLR 08/M03 A3018 RMK AO2 SLP225
T00831028





000
SAUS46 KMFR 050157
MTRSXT
METAR KSXT 050156Z AUTO 35005KT 10SM CLR 08/M03 A3018 RMK AO2 SLP225
T00831028





000
SAUS46 KMFR 050057
MTRSXT
METAR KSXT 050056Z AUTO 00000KT 10SM CLR 10/M01 A3017 RMK AO2 SLP219
T01001011





000
SAUS46 KMFR 050057
MTRSXT
METAR KSXT 050056Z AUTO 00000KT 10SM CLR 10/M01 A3017 RMK AO2 SLP219
T01001011





000
SAUS46 KMFR 050000
MTRMHS
METAR KMHS 042356Z AUTO 28007KT 10SM CLR 14/M02 A3014 RMK AO2 SLP231
T01441022 10167 20089 55001





000
SAUS46 KMFR 042357
MTRSXT
METAR KSXT 042356Z AUTO 00000KT 10SM CLR 09/00 A3017 RMK AO2 SLP219
T00940000 10111 20067 55001





000
SAUS46 KMFR 042357
MTRSXT
METAR KSXT 042356Z AUTO 00000KT 10SM CLR 09/00 A3017 RMK AO2 SLP219
T00940000 10111 20067 55001





000
SAUS46 KMFR 042257
MTRSXT
METAR KSXT 042256Z AUTO 00000KT 10SM CLR 11/M02 A3017 RMK AO2 SLP212
T01061022





000
SAUS46 KMFR 042157
MTRSXT
METAR KSXT 042156Z AUTO VRB03KT 10SM CLR 11/M01 A3017 RMK AO2 SLP214
T01061006





000
SAUS46 KMFR 042157
MTRSXT
METAR KSXT 042156Z AUTO VRB03KT 10SM CLR 11/M01 A3017 RMK AO2 SLP214
T01061006





000
SAUS46 KMFR 042057
MTRSXT
METAR KSXT 042056Z AUTO 13004KT 10SM CLR 11/00 A3018 RMK AO2 SLP215
T01060000 50006





000
SAUS46 KMFR 041957
MTRSXT
METAR KSXT 041956Z AUTO 13007KT 100V170 10SM CLR 09/M02 A3018 RMK
AO2 SLP220 T00891017





000
SAUS46 KMFR 041857
MTRSXT
METAR KSXT 041856Z AUTO 12006KT 10SM CLR 09/M03 A3016 RMK AO2 SLP214
T00891033





000
SAUS46 KMFR 041757
MTRSXT
METAR KSXT 041756Z AUTO 10004KT 10SM CLR 07/M04 A3015 RMK AO2 SLP219
T00671039 10067 20017 51017





000
SAUS46 KMFR 041657
MTRSXT
METAR KSXT 041656Z AUTO VRB04KT 10SM CLR 06/M04 A3014 RMK AO2 SLP215
T00611039





000
SAUS46 KMFR 041657
MTRSXT
METAR KSXT 041656Z AUTO VRB04KT 10SM CLR 06/M04 A3014 RMK AO2 SLP215
T00611039





000
SAUS46 KMFR 041557
MTRSXT
METAR KSXT 041556Z AUTO 10006KT 10SM CLR 04/M05 A3012 RMK AO2 SLP212
T00391050





000
SAUS46 KMFR 041557
MTRSXT
METAR KSXT 041556Z AUTO 10006KT 10SM CLR 04/M05 A3012 RMK AO2 SLP212
T00391050





000
SAUS46 KMFR 041457
MTRSXT
METAR KSXT 041456Z AUTO 11011KT 10SM CLR 02/M06 A3010 RMK AO2 SLP206
T00221061 51003





000
SAUS46 KMFR 041457
MTRSXT
METAR KSXT 041456Z AUTO 11011KT 10SM CLR 02/M06 A3010 RMK AO2 SLP206
T00221061 51003





000
SAUS46 KMFR 041357
MTRSXT
METAR KSXT 041356Z AUTO 10007KT 10SM CLR 02/M04 A3010 RMK AO2 SLP207
T00171044





000
SAUS46 KMFR 041357
MTRSXT
METAR KSXT 041356Z AUTO 10007KT 10SM CLR 02/M04 A3010 RMK AO2 SLP207
T00171044





000
SAUS46 KMFR 041257
MTRSXT
METAR KSXT 041256Z AUTO 11009KT 10SM CLR 02/M03 A3009 RMK AO2 SLP201
T00221028





000
SAUS46 KMFR 041257
MTRSXT
METAR KSXT 041256Z AUTO 11009KT 10SM CLR 02/M03 A3009 RMK AO2 SLP201
T00221028





000
SAUS46 KMFR 041200
MTRMHS
METAR KMHS 041156Z AUTO 01004KT 8SM CLR M04/M08 A3011 RMK AO2 SLP226
T10391078 10000 21044 50000





000
SAUS46 KMFR 041157
MTRSXT
METAR KSXT 041156Z AUTO 10005KT 10SM CLR 03/M02 A3009 RMK AO2 SLP195
T00281017 10033 20017 58001





000
SAUS46 KMFR 041157
MTRSXT
METAR KSXT 041156Z AUTO 10005KT 10SM CLR 03/M02 A3009 RMK AO2 SLP195
T00281017 10033 20017 58001





000
SAUS46 KMFR 041057
MTRSXT
METAR KSXT 041056Z AUTO 09003KT 10SM CLR 03/M02 A3010 RMK AO2 SLP197
T00331017





000
SAUS46 KMFR 041057
MTRSXT
METAR KSXT 041056Z AUTO 09003KT 10SM CLR 03/M02 A3010 RMK AO2 SLP197
T00331017





000
SAUS46 KMFR 040957
MTRSXT
METAR KSXT 040956Z AUTO 00000KT 10SM CLR 03/M02 A3010 RMK AO2 SLP203
T00281017





000
SAUS46 KMFR 040857
MTRSXT
METAR KSXT 040856Z AUTO 09004KT 10SM CLR 03/M02 A3009 RMK AO2 SLP200
T00331017 51005





000
SAUS46 KMFR 040800
MTRMHS
METAR KMHS 040756Z AUTO 00000KT 8SM CLR M02/M06 A3010 RMK AO2 SLP220
T10171061 401221022





000
SAUS46 KMFR 040800
MTRMHS
METAR KMHS 040756Z AUTO 00000KT 8SM CLR M02/M06 A3010 RMK AO2 SLP220
T10171061 401221022





000
SAUS46 KMFR 040757
MTRSXT
METAR KSXT 040756Z AUTO 08003KT 10SM CLR 03/M02 A3009 RMK AO2 SLP196
T00331017 400671017





000
SAUS46 KMFR 040757
MTRSXT
METAR KSXT 040756Z AUTO 08003KT 10SM CLR 03/M02 A3009 RMK AO2 SLP196
T00331017 400671017





000
SAUS46 KMFR 040657
MTRSXT
METAR KSXT 040656Z AUTO 07004KT 10SM CLR 03/M02 A3008 RMK AO2 SLP198
T00281017





000
SAUS46 KMFR 040657
MTRSXT
METAR KSXT 040656Z AUTO 07004KT 10SM CLR 03/M02 A3008 RMK AO2 SLP198
T00281017





000
SAUS46 KMFR 040557
MTRSXT
METAR KSXT 040556Z AUTO 01008KT 10SM CLR 02/M01 A3008 RMK AO2 SLP199
T00171011 10056 20017 52008





000
SAUS46 KMFR 040557
MTRSXT
METAR KSXT 040556Z AUTO 01008KT 10SM CLR 02/M01 A3008 RMK AO2 SLP199
T00171011 10056 20017 52008





000
SAUS46 KMFR 040500
MTRMHS
METAR KMHS 040456Z AUTO 06003KT 8SM CLR 01/M04 A3005 RMK AO2 SLP209
T00061044





000
SAUS46 KMFR 040457
MTRSXT
METAR KSXT 040456Z AUTO 02009KT 10SM CLR 02/M02 A3007 RMK AO2 SLP197
T00221017





000
SAUS46 KMFR 040457
MTRSXT
METAR KSXT 040456Z AUTO 02009KT 10SM CLR 02/M02 A3007 RMK AO2 SLP197
T00221017





000
SAUS46 KMFR 040357
MTRSXT
METAR KSXT 040356Z AUTO 01008KT 10SM CLR 02/M02 A3006 RMK AO2 SLP200
T00221017





000
SAUS46 KMFR 040257
MTRSXT
METAR KSXT 040256Z AUTO 03011KT 10SM CLR 03/M02 A3005 RMK AO2 SLP196
T00281017 53003





000
SAUS46 KMFR 040257
MTRSXT
METAR KSXT 040256Z AUTO 03011KT 10SM CLR 03/M02 A3005 RMK AO2 SLP196
T00281017 53003





000
SAUS46 KMFR 040157
MTRSXT
METAR KSXT 040156Z AUTO VRB06KT 10SM CLR 02/00 A3004 RMK AO2 SLP192
T00220000





000
SAUS46 KMFR 040157
MTRSXT
METAR KSXT 040156Z AUTO VRB06KT 10SM CLR 02/00 A3004 RMK AO2 SLP192
T00220000





000
SAUS46 KMFR 040057
MTRSXT
METAR KSXT 040056Z AUTO VRB04KT 10SM CLR 04/01 A3004 RMK AO2 SLP189
T00390006





000
SAUS46 KMFR 040057
MTRSXT
METAR KSXT 040056Z AUTO VRB04KT 10SM CLR 04/01 A3004 RMK AO2 SLP189
T00390006





000
SAUS46 KMFR 040000
MTRMHS
METAR KMHS 032356Z AUTO 30005KT 10SM CLR 11/M03 A2999 RMK AO2 SLP178
T01061033 10122 20056 56009





000
SAUS46 KMFR 040000
MTRMHS
METAR KMHS 032356Z AUTO 30005KT 10SM CLR 11/M03 A2999 RMK AO2 SLP178
T01061033 10122 20056 56009





000
SAUS46 KMFR 032357
MTRSXT
METAR KSXT 032356Z AUTO VRB03KT 10SM CLR 06/01 A3004 RMK AO2 SLP187
T00560011 10067 20033 55006





000
SAUS46 KMFR 032357
MTRSXT
METAR KSXT 032356Z AUTO VRB03KT 10SM CLR 06/01 A3004 RMK AO2 SLP187
T00560011 10067 20033 55006





000
SAUS46 KMFR 032257
MTRSXT
METAR KSXT 032256Z AUTO 00000KT 10SM CLR 06/01 A3004 RMK AO2 SLP186
T00610011





000
SAUS46 KMFR 032257
MTRSXT
METAR KSXT 032256Z AUTO 00000KT 10SM CLR 06/01 A3004 RMK AO2 SLP186
T00610011





000
SAUS46 KMFR 032157
MTRSXT
METAR KSXT 032156Z AUTO VRB03KT 10SM SCT021 05/01 A3005 RMK AO2
SLP191 T00500006





000
SAUS46 KMFR 032057
MTRSXT
METAR KSXT 032056Z AUTO 00000KT 10SM FEW018 04/00 A3006 RMK AO2
SLP196 T00440000 58002





000
SAUS46 KMFR 031957
MTRSXT
METAR KSXT 031956Z AUTO 12004KT 10SM CLR 05/01 A3008 RMK AO2 SLP199
T00500006





000
SAUS46 KMFR 031857
MTRSXT
METAR KSXT 031856Z AUTO VRB03KT 10SM CLR 04/01 A3007 RMK AO2 SLP199
T00390011





000
SAUS46 KMFR 031757
MTRSXT
METAR KSXT 031756Z AUTO VRB03KT 10SM CLR 04/01 A3007 RMK AO2 SLP201
T00390006 10039 21017 51007





000
SAUS46 KMFR 031657
MTRSXT
METAR KSXT 031656Z AUTO VRB04KT 10SM CLR 02/00 A3007 RMK AO2 SLP202
T00220000





000
SAUS46 KMFR 031600
MTRMHS
METAR KMHS 031556Z AUTO 00000KT 10SM CLR 00/M03 A3006 RMK AO2 SLP210
T00001028





000
SAUS46 KMFR 031557
MTRSXT
METAR KSXT 031556Z AUTO 00000KT 10SM CLR 00/M01 A3006 RMK AO2 SLP204
T00001006





000
SAUS46 KMFR 031510
MTRSXT
SPECI KSXT 031509Z AUTO 09003KT 10SM SCT001 M01/M01 A3005 RMK AO2
T10061011





000
SAUS46 KMFR 031510
MTRSXT
SPECI KSXT 031509Z AUTO 09003KT 10SM SCT001 M01/M01 A3005 RMK AO2
T10061011





000
SAUS46 KMFR 031503
MTRSXT
SPECI KSXT 031502Z AUTO 06004KT 1 1/2SM BR SCT001 M01/M02 A3005 RMK
AO2 T10061017





000
SAUS46 KMFR 031457
MTRSXT
METAR KSXT 031456Z AUTO 05005KT 1/4SM FZFG VV001 M01/M02 A3005 RMK
AO2 SLP202 T10111017 51007





000
SAUS46 KMFR 031457
MTRSXT
METAR KSXT 031456Z AUTO 05005KT 1/4SM FZFG VV001 M01/M02 A3005 RMK
AO2 SLP202 T10111017 51007





000
SAUS46 KMFR 031432
MTRSXT
SPECI KSXT 031431Z AUTO 02005KT M1/4SM FZFG VV001 M02/M02 A3004 RMK
AO2 T10171022





000
SAUS46 KMFR 031424
MTRSXT
SPECI KSXT 031423Z AUTO 01005KT 3/4SM BR VV001 M02/M02 A3004 RMK AO2
T10171022





000
SAUS46 KMFR 031424
MTRSXT
SPECI KSXT 031423Z AUTO 01005KT 3/4SM BR VV001 M02/M02 A3004 RMK AO2
T10171022





000
SAUS46 KMFR 031357
MTRSXT
METAR KSXT 031356Z AUTO 08003KT 10SM CLR M01/M02 A3004 RMK AO2
SLP198 T10061017





000
SAUS46 KMFR 031357
MTRSXT
METAR KSXT 031356Z AUTO 08003KT 10SM CLR M01/M02 A3004 RMK AO2
SLP198 T10061017





000
SAUS46 KMFR 031257
MTRSXT
METAR KSXT 031256Z AUTO 08003KT 10SM CLR M01/M02 A3003 RMK AO2
SLP192 T10061017





000
SAUS46 KMFR 031157
MTRSXT
METAR KSXT 031156Z AUTO 07005KT 10SM CLR M01/M02 A3003 RMK AO2
SLP187 70001 T10061017 10000 21011 50001





000
SAUS46 KMFR 031057
MTRSXT
METAR KSXT 031056Z AUTO 04005KT 10SM CLR M01/M01 A3003 RMK AO2
SLP186 T10061011





000
SAUS46 KMFR 031057
MTRSXT
METAR KSXT 031056Z AUTO 04005KT 10SM CLR M01/M01 A3003 RMK AO2
SLP186 T10061011





000
SAUS46 KMFR 030957
MTRSXT
METAR KSXT 030956Z AUTO 09003KT 8SM FEW001 M01/M01 A3002 RMK AO2
SLP181 T10061011





000
SAUS46 KMFR 030955
MTRSXT
SPECI KSXT 030954Z AUTO 10004KT 8SM SCT001 M01/M01 A3002 RMK AO2





000
SAUS46 KMFR 030955
MTRSXT
SPECI KSXT 030954Z AUTO 10004KT 8SM SCT001 M01/M01 A3002 RMK AO2





000
SAUS46 KMFR 030947
MTRSXT
SPECI KSXT 030946Z AUTO 08004KT 3SM BR BKN001 M01/M01 A3002 RMK AO2
T10061006





000
SAUS46 KMFR 030941
MTRSXT
SPECI KSXT 030940Z AUTO 06006KT 1 1/2SM BR BKN001 M01/M01 A3002 RMK
AO2 VIS 1/2V3 T10061006





000
SAUS46 KMFR 030941
MTRSXT
SPECI KSXT 030940Z AUTO 06006KT 1 1/2SM BR BKN001 M01/M01 A3002 RMK
AO2 VIS 1/2V3 T10061006





000
SAUS46 KMFR 030939
MTRSXT
SPECI KSXT 030938Z AUTO 05005KT 3/4SM BR VV001 M01/M01 A3002 RMK AO2
VIS 1/4V3 T10061006





000
SAUS46 KMFR 030939
MTRSXT
SPECI KSXT 030938Z AUTO 05005KT 3/4SM BR VV001 M01/M01 A3002 RMK AO2
VIS 1/4V3 T10061006





000
SAUS46 KMFR 030857
MTRSXT
METAR KSXT 030856Z AUTO 02011KT 1/4SM FG VV002 00/00 A3002 RMK AO2
SLP182 T00000000 51012





000
SAUS46 KMFR 030757
MTRSXT
METAR KSXT 030756Z AUTO 01009KT 1/4SM FG VV002 00/00 A3001 RMK AO2
SLP181 T00000000 400501011





000
SAUS46 KMFR 030757
MTRSXT
METAR KSXT 030756Z AUTO 01009KT 1/4SM FG VV002 00/00 A3001 RMK AO2
SLP181 T00000000 400501011





000
SAUS46 KMFR 030741
MTRSXT
SPECI KSXT 030740Z AUTO 36006KT M1/4SM FG VV001 00/00 A3001 RMK AO2
T00000000





000
SAUS46 KMFR 030741
MTRSXT
SPECI KSXT 030740Z AUTO 36006KT M1/4SM FG VV001 00/00 A3001 RMK AO2
T00000000





000
SAUS46 KMFR 030657
MTRSXT
METAR KSXT 030656Z AUTO 36006KT M1/4SM FG VV002 00/00 A3000 RMK AO2
SLP178 T00000000





000
SAUS46 KMFR 030657
MTRSXT
METAR KSXT 030656Z AUTO 36006KT M1/4SM FG VV002 00/00 A3000 RMK AO2
SLP178 T00000000





000
SAUS46 KMFR 030557
MTRSXT
METAR KSXT 030556Z AUTO 35008G16KT 1/4SM FZFG VV002 M01/M01 A2998
RMK AO2 SLP176 T10061006 10028 21006 52021





000
SAUS46 KMFR 030557
MTRSXT
METAR KSXT 030556Z AUTO 35008G16KT 1/4SM FZFG VV002 M01/M01 A2998
RMK AO2 SLP176 T10061006 10028 21006 52021





000
SAUS46 KMFR 030457
MTRSXT
METAR KSXT 030456Z AUTO 36009G17KT 1/4SM FG VV002 00/00 A2996 RMK
AO2 SLP168 T00000000





000
SAUS46 KMFR 030457
MTRSXT
METAR KSXT 030456Z AUTO 36009G17KT 1/4SM FG VV002 00/00 A2996 RMK
AO2 SLP168 T00000000





000
SAUS46 KMFR 030428
MTRSXT
SPECI KSXT 030427Z AUTO 35007G14KT 1/4SM FZFG VV002 M01/M01 A2995
RMK AO2 T10061006





000
SAUS46 KMFR 030402
MTRSXT
SPECI KSXT 030401Z AUTO 36007G15KT 3/4SM BR VV002 M01/M01 A2993 RMK
AO2 T10061006





000
SAUS46 KMFR 030358
MTRSXT
METAR KSXT 030356Z AUTO 35006G18KT 1SM BR BKN001 BKN006 M01/M01
A2993 RMK AO2 SLP159 T10061006





000
SAUS46 KMFR 030358
MTRSXT
METAR KSXT 030356Z AUTO 35006G18KT 1SM BR BKN001 BKN006 M01/M01
A2993 RMK AO2 SLP159 T10061006





000
SAUS46 KMFR 030329
MTRSXT
SPECI KSXT 030328Z AUTO 35008G17KT 1/2SM FZFG VV001 M01/M01 A2992
RMK AO2 T10061011





000
SAUS46 KMFR 030257
MTRSXT
METAR KSXT 030256Z AUTO VRB04KT 1/2SM FG VV002 00/M01 A2991 RMK AO2
SLP153 T00001006 51010





000
SAUS46 KMFR 030257
MTRSXT
METAR KSXT 030256Z AUTO VRB04KT 1/2SM FG VV002 00/M01 A2991 RMK AO2
SLP153 T00001006 51010





000
SAUS46 KMFR 030157
MTRSXT
METAR KSXT 030156Z AUTO VRB04KT 3/4SM BR VV002 01/00 A2990 RMK AO2
VIS 1/4V3 SLP147 T00060000





000
SAUS46 KMFR 030152
MTRSXT
SPECI KSXT 030151Z AUTO VRB03KT 1 3/4SM BR OVC002 01/00 A2989 RMK
AO2 VIS 1V3





000
SAUS46 KMFR 030152
MTRSXT
SPECI KSXT 030151Z AUTO VRB03KT 1 3/4SM BR OVC002 01/00 A2989 RMK
AO2 VIS 1V3





000
SAUS46 KMFR 030143
MTRSXT
SPECI KSXT 030142Z AUTO 00000KT 2SM BR OVC002 01/00 A2989 RMK AO2
VIS 1 1/4V5 T00060000





000
SAUS46 KMFR 030143
MTRSXT
SPECI KSXT 030142Z AUTO 00000KT 2SM BR OVC002 01/00 A2989 RMK AO2
VIS 1 1/4V5 T00060000





000
SAUS46 KMFR 030131
MTRSXT
SPECI KSXT 030130Z AUTO 1 1/4SM BR OVC002 01/01 A2988 RMK AO2 VIS
1/2V5 T00110006





000
SAUS46 KMFR 030131
MTRSXT
SPECI KSXT 030130Z AUTO 1 1/4SM BR OVC002 01/01 A2988 RMK AO2 VIS
1/2V5 T00110006





000
SAUS46 KMFR 030107
MTRSXT
SPECI KSXT 030106Z AUTO 2 1/2SM BR OVC002 02/01 A2988 RMK AO2 VIS
1V5 T00170006





000
SAUS46 KMFR 030057
MTRSXT
METAR KSXT 030056Z AUTO 5SM BR OVC003 02/01 A2987 RMK AO2 SLP137
T00170006





000
SAUS46 KMFR 030057
MTRSXT
METAR KSXT 030056Z AUTO 5SM BR OVC003 02/01 A2987 RMK AO2 SLP137
T00170006





000
SAUS46 KMFR 030027
MTRSXT
SPECI KSXT 030026Z AUTO VRB03KT 10SM BKN007 OVC013 02/00 A2987 RMK
AO2 CIG 003V010 T00220000





000
SAUS46 KMFR 030015
MTRSXT
SPECI KSXT 030014Z AUTO 00000KT 10SM OVC010 02/00 A2987 RMK AO2 CIG
007V013 T00220000





000
SAUS46 KMFR 030015
MTRSXT
SPECI KSXT 030014Z AUTO 00000KT 10SM OVC010 02/00 A2987 RMK AO2 CIG
007V013 T00220000





000
SAUS46 KMFR 030007
MTRSXT
SPECI KSXT 030006Z AUTO 00000KT 10SM BKN008 OVC013 02/00 A2986 RMK
AO2 CIG 008V012 T00220000





000
SAUS46 KMFR 030007
MTRSXT
SPECI KSXT 030006Z AUTO 00000KT 10SM BKN008 OVC013 02/00 A2986 RMK
AO2 CIG 008V012 T00220000





    US Dept of Commerce
    National Oceanic and Atmospheric Administration
    National Weather Service
    1325 East West Highway
    Silver Spring, MD 20910
    Page Author: NWS Internet Services Team
Disclaimer
Information Quality
Credits
Glossary
Privacy Policy
Freedom of Information Act (FOIA)
About Us
Career Opportunities